sensor_id;sensor_type;location;lat;lon;timestamp;P1;durP1;ratioP1;P2;durP2;ratioP2
13785;SDS011;47474;48.824;9.384;2023-12-28T00:02:06;4.07;;;2.33;;
13785;SDS011;47474;48.824;9.384;2023-12-28T00:04:34;3.93;;;2.13;;
13785;SDS011;47474;48.824;9.384;2023-12-28T00:07:01;2.73;;;2.10;;
13785;SDS011;47474;48.824;9.384;2023-12-28T00:09:28;3.30;;;2.20;;
13785;SDS011;47474;48.824;9.384;2023-12-28T00:11:54;2.30;;;2.10;;
13785;SDS011;47474;48.824;9.384;2023-12-28T00:14:21;3.23;;;2.70;;
13785;SDS011;47474;48.824;9.384;2023-12-28T00:16:47;3.37;;;2.37;;
13785;SDS011;47474;48.824;9.384;2023-12-28T00:19:14;2.77;;;2.33;;
13785;SDS011;47474;48.824;9.384;2023-12-28T00:21:42;3.27;;;2.37;;
13785;SDS011;47474;48.824;9.384;2023-12-28T00:24:09;1.90;;;1.70;;
13785;SDS011;47474;48.824;9.384;2023-12-28T00:26:35;5.27;;;2.10;;
13785;SDS011;47474;48.824;9.384;2023-12-28T00:29:03;3.50;;;2.20;;
13785;SDS011;47474;48.824;9.384;2023-12-28T00:31:29;2.93;;;2.17;;
13785;SDS011;47474;48.824;9.384;2023-12-28T00:33:56;2.20;;;2.00;;
13785;SDS011;47474;48.824;9.384;2023-12-28T00:36:22;2.77;;;2.23;;
13785;SDS011;47474;48.824;9.384;2023-12-28T00:38:50;1.63;;;1.53;;
13785;SDS011;47474;48.824;9.384;2023-12-28T00:41:17;2.50;;;1.83;;
13785;SDS011;47474;48.824;9.384;2023-12-28T00:43:43;2.40;;;1.93;;
13785;SDS011;47474;48.824;9.384;2023-12-28T00:46:10;2.60;;;1.90;;
13785;SDS011;47474;48.824;9.384;2023-12-28T00:48:36;2.00;;;1.60;;
13785;SDS011;47474;48.824;9.384;2023-12-28T00:51:03;2.23;;;1.80;;
13785;SDS011;47474;48.824;9.384;2023-12-28T00:53:29;1.90;;;1.70;;
13785;SDS011;47474;48.824;9.384;2023-12-28T00:55:57;2.03;;;1.70;;
13785;SDS011;47474;48.824;9.384;2023-12-28T00:58:24;2.07;;;1.67;;
13785;SDS011;47474;48.824;9.384;2023-12-28T01:00:50;2.67;;;2.10;;
13785;SDS011;47474;48.824;9.384;2023-12-28T01:03:18;2.33;;;1.80;;
13785;SDS011;47474;48.824;9.384;2023-12-28T01:05:45;2.30;;;2.10;;
13785;SDS011;47474;48.824;9.384;2023-12-28T01:08:12;3.80;;;1.90;;
13785;SDS011;47474;48.824;9.384;2023-12-28T01:10:39;2.40;;;1.70;;
13785;SDS011;47474;48.824;9.384;2023-12-28T01:13:06;2.77;;;2.07;;
13785;SDS011;47474;48.824;9.384;2023-12-28T01:15:33;1.83;;;1.60;;
13785;SDS011;47474;48.824;9.384;2023-12-28T01:17:59;2.10;;;1.87;;
13785;SDS011;47474;48.824;9.384;2023-12-28T01:20:26;2.03;;;1.83;;
13785;SDS011;47474;48.824;9.384;2023-12-28T01:22:52;2.67;;;1.83;;
13785;SDS011;47474;48.824;9.384;2023-12-28T01:25:19;3.10;;;1.77;;
13785;SDS011;47474;48.824;9.384;2023-12-28T01:27:45;3.10;;;1.60;;
13785;SDS011;47474;48.824;9.384;2023-12-28T01:30:13;1.83;;;1.70;;
13785;SDS011;47474;48.824;9.384;2023-12-28T01:32:39;2.53;;;1.93;;
13785;SDS011;47474;48.824;9.384;2023-12-28T01:35:06;3.00;;;1.90;;
13785;SDS011;47474;48.824;9.384;2023-12-28T01:37:33;2.30;;;2.10;;
13785;SDS011;47474;48.824;9.384;2023-12-28T01:39:59;2.30;;;1.90;;
13785;SDS011;47474;48.824;9.384;2023-12-28T01:42:27;2.90;;;1.80;;
13785;SDS011;47474;48.824;9.384;2023-12-28T01:44:55;2.80;;;2.00;;
13785;SDS011;47474;48.824;9.384;2023-12-28T01:47:23;2.80;;;1.93;;
13785;SDS011;47474;48.824;9.384;2023-12-28T01:49:49;2.00;;;1.80;;
13785;SDS011;47474;48.824;9.384;2023-12-28T01:52:16;1.77;;;1.63;;
13785;SDS011;47474;48.824;9.384;2023-12-28T01:54:42;2.43;;;1.97;;
13785;SDS011;47474;48.824;9.384;2023-12-28T01:57:09;1.60;;;1.50;;
13785;SDS011;47474;48.824;9.384;2023-12-28T01:59:37;3.30;;;1.80;;
13785;SDS011;47474;48.824;9.384;2023-12-28T02:02:03;2.10;;;1.90;;
13785;SDS011;47474;48.824;9.384;2023-12-28T02:04:31;3.17;;;1.87;;
13785;SDS011;47474;48.824;9.384;2023-12-28T02:06:59;2.10;;;1.57;;
13785;SDS011;47474;48.824;9.384;2023-12-28T02:09:26;3.43;;;2.10;;
13785;SDS011;47474;48.824;9.384;2023-12-28T02:11:53;3.30;;;1.73;;
13785;SDS011;47474;48.824;9.384;2023-12-28T02:14:20;2.77;;;1.80;;
13785;SDS011;47474;48.824;9.384;2023-12-28T02:16:47;2.10;;;1.50;;
13785;SDS011;47474;48.824;9.384;2023-12-28T02:19:18;2.53;;;1.87;;
13785;SDS011;47474;48.824;9.384;2023-12-28T02:21:52;2.50;;;1.87;;
13785;SDS011;47474;48.824;9.384;2023-12-28T02:24:18;2.53;;;2.00;;
13785;SDS011;47474;48.824;9.384;2023-12-28T02:26:46;2.13;;;1.80;;
13785;SDS011;47474;48.824;9.384;2023-12-28T02:29:13;2.30;;;1.83;;
13785;SDS011;47474;48.824;9.384;2023-12-28T02:31:40;1.73;;;1.63;;
13785;SDS011;47474;48.824;9.384;2023-12-28T02:34:12;2.17;;;1.97;;
13785;SDS011;47474;48.824;9.384;2023-12-28T02:36:41;2.13;;;1.63;;
13785;SDS011;47474;48.824;9.384;2023-12-28T02:39:07;1.80;;;1.70;;
13785;SDS011;47474;48.824;9.384;2023-12-28T02:41:35;2.77;;;1.67;;
13785;SDS011;47474;48.824;9.384;2023-12-28T02:44:04;2.33;;;1.80;;
13785;SDS011;47474;48.824;9.384;2023-12-28T02:46:30;2.70;;;1.70;;
13785;SDS011;47474;48.824;9.384;2023-12-28T02:48:57;1.93;;;1.77;;
13785;SDS011;47474;48.824;9.384;2023-12-28T02:51:24;1.90;;;1.70;;
13785;SDS011;47474;48.824;9.384;2023-12-28T02:53:51;3.97;;;2.13;;
13785;SDS011;47474;48.824;9.384;2023-12-28T02:56:17;2.80;;;1.90;;
13785;SDS011;47474;48.824;9.384;2023-12-28T02:58:44;1.77;;;1.60;;
13785;SDS011;47474;48.824;9.384;2023-12-28T03:01:11;1.60;;;1.50;;
13785;SDS011;47474;48.824;9.384;2023-12-28T03:03:38;4.30;;;1.70;;
13785;SDS011;47474;48.824;9.384;2023-12-28T03:06:04;3.20;;;1.70;;
13785;SDS011;47474;48.824;9.384;2023-12-28T03:08:31;1.87;;;1.50;;
13785;SDS011;47474;48.824;9.384;2023-12-28T03:10:58;2.23;;;1.60;;
13785;SDS011;47474;48.824;9.384;2023-12-28T03:13:24;2.43;;;1.50;;
13785;SDS011;47474;48.824;9.384;2023-12-28T03:15:51;2.10;;;1.63;;
13785;SDS011;47474;48.824;9.384;2023-12-28T03:18:18;2.63;;;1.70;;
13785;SDS011;47474;48.824;9.384;2023-12-28T03:20:45;1.60;;;1.50;;
13785;SDS011;47474;48.824;9.384;2023-12-28T03:23:11;1.93;;;1.73;;
13785;SDS011;47474;48.824;9.384;2023-12-28T03:25:38;2.43;;;1.60;;
13785;SDS011;47474;48.824;9.384;2023-12-28T03:28:04;1.77;;;1.67;;
13785;SDS011;47474;48.824;9.384;2023-12-28T03:30:31;2.00;;;1.60;;
13785;SDS011;47474;48.824;9.384;2023-12-28T03:32:57;3.40;;;1.83;;
13785;SDS011;47474;48.824;9.384;2023-12-28T03:35:25;2.90;;;1.73;;
13785;SDS011;47474;48.824;9.384;2023-12-28T03:37:52;1.53;;;1.43;;
13785;SDS011;47474;48.824;9.384;2023-12-28T03:40:18;2.20;;;1.70;;
13785;SDS011;47474;48.824;9.384;2023-12-28T03:42:45;4.63;;;1.90;;
13785;SDS011;47474;48.824;9.384;2023-12-28T03:45:11;3.83;;;2.50;;
13785;SDS011;47474;48.824;9.384;2023-12-28T03:47:38;4.10;;;2.47;;
13785;SDS011;47474;48.824;9.384;2023-12-28T03:50:05;2.33;;;2.10;;
13785;SDS011;47474;48.824;9.384;2023-12-28T03:52:33;2.73;;;2.33;;
13785;SDS011;47474;48.824;9.384;2023-12-28T03:55:00;2.87;;;2.03;;
13785;SDS011;47474;48.824;9.384;2023-12-28T03:57:26;2.00;;;1.70;;
13785;SDS011;47474;48.824;9.384;2023-12-28T03:59:53;2.70;;;1.77;;
13785;SDS011;47474;48.824;9.384;2023-12-28T04:02:20;2.90;;;2.30;;
13785;SDS011;47474;48.824;9.384;2023-12-28T04:04:46;2.03;;;1.77;;
13785;SDS011;47474;48.824;9.384;2023-12-28T04:07:13;2.40;;;1.77;;
13785;SDS011;47474;48.824;9.384;2023-12-28T04:09:42;1.47;;;1.37;;
13785;SDS011;47474;48.824;9.384;2023-12-28T04:12:09;2.27;;;1.60;;
13785;SDS011;47474;48.824;9.384;2023-12-28T04:14:35;1.70;;;1.60;;
13785;SDS011;47474;48.824;9.384;2023-12-28T04:17:01;2.47;;;1.87;;
13785;SDS011;47474;48.824;9.384;2023-12-28T04:19:28;2.60;;;2.20;;
13785;SDS011;47474;48.824;9.384;2023-12-28T04:21:54;3.57;;;2.23;;
13785;SDS011;47474;48.824;9.384;2023-12-28T04:24:21;2.70;;;2.00;;
13785;SDS011;47474;48.824;9.384;2023-12-28T04:26:49;1.90;;;1.70;;
13785;SDS011;47474;48.824;9.384;2023-12-28T04:29:16;1.90;;;1.70;;
13785;SDS011;47474;48.824;9.384;2023-12-28T04:31:42;1.50;;;1.37;;
13785;SDS011;47474;48.824;9.384;2023-12-28T04:34:09;1.87;;;1.70;;
13785;SDS011;47474;48.824;9.384;2023-12-28T04:36:39;2.73;;;1.80;;
13785;SDS011;47474;48.824;9.384;2023-12-28T04:39:06;1.87;;;1.53;;
13785;SDS011;47474;48.824;9.384;2023-12-28T04:41:32;2.13;;;1.70;;
13785;SDS011;47474;48.824;9.384;2023-12-28T04:44:00;2.87;;;2.07;;
13785;SDS011;47474;48.824;9.384;2023-12-28T04:46:26;4.90;;;1.57;;
13785;SDS011;47474;48.824;9.384;2023-12-28T04:48:53;2.20;;;1.57;;
13785;SDS011;47474;48.824;9.384;2023-12-28T04:51:19;2.23;;;1.70;;
13785;SDS011;47474;48.824;9.384;2023-12-28T04:53:46;1.87;;;1.53;;
13785;SDS011;47474;48.824;9.384;2023-12-28T04:56:12;2.20;;;2.00;;
13785;SDS011;47474;48.824;9.384;2023-12-28T04:58:38;2.57;;;2.10;;
13785;SDS011;47474;48.824;9.384;2023-12-28T05:01:06;1.70;;;1.60;;
13785;SDS011;47474;48.824;9.384;2023-12-28T05:03:33;2.23;;;1.80;;
13785;SDS011;47474;48.824;9.384;2023-12-28T05:06:01;1.83;;;1.53;;
13785;SDS011;47474;48.824;9.384;2023-12-28T05:08:27;1.83;;;1.50;;
13785;SDS011;47474;48.824;9.384;2023-12-28T05:10:54;2.17;;;1.70;;
13785;SDS011;47474;48.824;9.384;2023-12-28T05:13:20;1.50;;;1.40;;
13785;SDS011;47474;48.824;9.384;2023-12-28T05:15:47;2.00;;;1.60;;
13785;SDS011;47474;48.824;9.384;2023-12-28T05:18:14;1.90;;;1.47;;
13785;SDS011;47474;48.824;9.384;2023-12-28T05:20:41;2.63;;;1.60;;
13785;SDS011;47474;48.824;9.384;2023-12-28T05:23:08;1.70;;;1.57;;
13785;SDS011;47474;48.824;9.384;2023-12-28T05:25:34;2.57;;;1.67;;
13785;SDS011;47474;48.824;9.384;2023-12-28T05:28:01;1.60;;;1.20;;
13785;SDS011;47474;48.824;9.384;2023-12-28T05:30:27;2.47;;;1.90;;
13785;SDS011;47474;48.824;9.384;2023-12-28T05:32:53;1.60;;;1.50;;
13785;SDS011;47474;48.824;9.384;2023-12-28T05:35:21;4.30;;;1.40;;
13785;SDS011;47474;48.824;9.384;2023-12-28T05:37:48;1.63;;;1.53;;
13785;SDS011;47474;48.824;9.384;2023-12-28T05:40:14;1.50;;;1.40;;
13785;SDS011;47474;48.824;9.384;2023-12-28T05:42:40;1.53;;;1.43;;
13785;SDS011;47474;48.824;9.384;2023-12-28T05:45:07;2.40;;;1.40;;
13785;SDS011;47474;48.824;9.384;2023-12-28T05:47:35;2.53;;;2.03;;
13785;SDS011;47474;48.824;9.384;2023-12-28T05:50:01;2.43;;;1.63;;
13785;SDS011;47474;48.824;9.384;2023-12-28T05:52:32;2.20;;;1.60;;
13785;SDS011;47474;48.824;9.384;2023-12-28T05:54:58;2.33;;;1.30;;
13785;SDS011;47474;48.824;9.384;2023-12-28T05:57:25;1.80;;;1.40;;
13785;SDS011;47474;48.824;9.384;2023-12-28T05:59:54;2.30;;;1.30;;
13785;SDS011;47474;48.824;9.384;2023-12-28T06:02:21;2.40;;;1.43;;
13785;SDS011;47474;48.824;9.384;2023-12-28T06:04:47;1.73;;;1.63;;
13785;SDS011;47474;48.824;9.384;2023-12-28T06:07:14;1.77;;;1.47;;
13785;SDS011;47474;48.824;9.384;2023-12-28T06:09:42;1.50;;;1.17;;
13785;SDS011;47474;48.824;9.384;2023-12-28T06:12:09;1.87;;;1.43;;
13785;SDS011;47474;48.824;9.384;2023-12-28T06:14:36;2.30;;;1.60;;
13785;SDS011;47474;48.824;9.384;2023-12-28T06:17:02;1.70;;;1.47;;
13785;SDS011;47474;48.824;9.384;2023-12-28T06:19:29;1.47;;;1.27;;
13785;SDS011;47474;48.824;9.384;2023-12-28T06:21:56;1.50;;;1.30;;
13785;SDS011;47474;48.824;9.384;2023-12-28T06:24:23;2.63;;;1.60;;
13785;SDS011;47474;48.824;9.384;2023-12-28T06:26:51;2.40;;;1.60;;
13785;SDS011;47474;48.824;9.384;2023-12-28T06:29:17;1.50;;;1.40;;
13785;SDS011;47474;48.824;9.384;2023-12-28T06:31:44;1.50;;;1.20;;
13785;SDS011;47474;48.824;9.384;2023-12-28T06:34:10;1.70;;;1.50;;
13785;SDS011;47474;48.824;9.384;2023-12-28T06:36:37;1.93;;;1.60;;
13785;SDS011;47474;48.824;9.384;2023-12-28T06:39:03;2.40;;;1.73;;
13785;SDS011;47474;48.824;9.384;2023-12-28T06:41:29;1.97;;;1.53;;
13785;SDS011;47474;48.824;9.384;2023-12-28T06:43:57;2.00;;;1.53;;
13785;SDS011;47474;48.824;9.384;2023-12-28T06:46:24;2.00;;;1.80;;
13785;SDS011;47474;48.824;9.384;2023-12-28T06:48:50;2.03;;;1.70;;
13785;SDS011;47474;48.824;9.384;2023-12-28T06:51:17;2.33;;;1.90;;
13785;SDS011;47474;48.824;9.384;2023-12-28T06:53:44;1.63;;;1.53;;
13785;SDS011;47474;48.824;9.384;2023-12-28T06:56:10;1.83;;;1.63;;
13785;SDS011;47474;48.824;9.384;2023-12-28T06:58:37;1.90;;;1.43;;
13785;SDS011;47474;48.824;9.384;2023-12-28T07:01:05;1.73;;;1.40;;
13785;SDS011;47474;48.824;9.384;2023-12-28T07:03:31;1.73;;;1.40;;
13785;SDS011;47474;48.824;9.384;2023-12-28T07:05:58;1.60;;;1.50;;
13785;SDS011;47474;48.824;9.384;2023-12-28T07:08:24;1.77;;;1.53;;
13785;SDS011;47474;48.824;9.384;2023-12-28T07:10:51;1.90;;;1.33;;
13785;SDS011;47474;48.824;9.384;2023-12-28T07:13:17;2.70;;;1.53;;
13785;SDS011;47474;48.824;9.384;2023-12-28T07:15:44;1.80;;;1.70;;
13785;SDS011;47474;48.824;9.384;2023-12-28T07:18:12;2.67;;;2.00;;
13785;SDS011;47474;48.824;9.384;2023-12-28T07:20:38;3.97;;;1.60;;
13785;SDS011;47474;48.824;9.384;2023-12-28T07:23:05;1.77;;;1.60;;
13785;SDS011;47474;48.824;9.384;2023-12-28T07:25:31;2.77;;;1.73;;
13785;SDS011;47474;48.824;9.384;2023-12-28T07:27:58;1.70;;;1.60;;
13785;SDS011;47474;48.824;9.384;2023-12-28T07:30:24;2.03;;;1.80;;
13785;SDS011;47474;48.824;9.384;2023-12-28T07:32:51;2.57;;;1.80;;
13785;SDS011;47474;48.824;9.384;2023-12-28T07:35:19;1.73;;;1.40;;
13785;SDS011;47474;48.824;9.384;2023-12-28T07:37:45;1.70;;;1.60;;
13785;SDS011;47474;48.824;9.384;2023-12-28T07:40:12;1.70;;;1.60;;
13785;SDS011;47474;48.824;9.384;2023-12-28T07:42:39;3.83;;;2.40;;
13785;SDS011;47474;48.824;9.384;2023-12-28T07:45:05;3.53;;;2.77;;
13785;SDS011;47474;48.824;9.384;2023-12-28T07:47:31;3.57;;;2.60;;
13785;SDS011;47474;48.824;9.384;2023-12-28T07:49:58;3.97;;;2.70;;
13785;SDS011;47474;48.824;9.384;2023-12-28T07:52:26;3.70;;;2.50;;
13785;SDS011;47474;48.824;9.384;2023-12-28T07:54:53;4.17;;;2.03;;
13785;SDS011;47474;48.824;9.384;2023-12-28T07:57:20;2.40;;;2.03;;
13785;SDS011;47474;48.824;9.384;2023-12-28T07:59:46;2.43;;;2.03;;
13785;SDS011;47474;48.824;9.384;2023-12-28T08:02:13;3.93;;;3.30;;
13785;SDS011;47474;48.824;9.384;2023-12-28T08:04:39;3.73;;;2.90;;
13785;SDS011;47474;48.824;9.384;2023-12-28T08:07:06;8.80;;;6.73;;
13785;SDS011;47474;48.824;9.384;2023-12-28T08:09:35;6.93;;;4.67;;
13785;SDS011;47474;48.824;9.384;2023-12-28T08:12:01;5.60;;;3.90;;
13785;SDS011;47474;48.824;9.384;2023-12-28T08:14:28;3.70;;;3.10;;
13785;SDS011;47474;48.824;9.384;2023-12-28T08:16:55;5.87;;;3.30;;
13785;SDS011;47474;48.824;9.384;2023-12-28T08:19:21;2.90;;;2.60;;
13785;SDS011;47474;48.824;9.384;2023-12-28T08:21:48;5.63;;;3.30;;
13785;SDS011;47474;48.824;9.384;2023-12-28T08:24:14;3.87;;;3.20;;
13785;SDS011;47474;48.824;9.384;2023-12-28T08:26:43;3.57;;;3.07;;
13785;SDS011;47474;48.824;9.384;2023-12-28T08:29:09;6.93;;;3.80;;
13785;SDS011;47474;48.824;9.384;2023-12-28T08:31:36;10.63;;;6.07;;
13785;SDS011;47474;48.824;9.384;2023-12-28T08:34:02;8.70;;;5.40;;
13785;SDS011;47474;48.824;9.384;2023-12-28T08:36:29;8.60;;;5.20;;
13785;SDS011;47474;48.824;9.384;2023-12-28T08:38:55;7.23;;;5.10;;
13785;SDS011;47474;48.824;9.384;2023-12-28T08:41:22;5.17;;;4.20;;
13785;SDS011;47474;48.824;9.384;2023-12-28T08:43:51;5.90;;;4.40;;
13785;SDS011;47474;48.824;9.384;2023-12-28T08:46:19;7.47;;;4.90;;
13785;SDS011;47474;48.824;9.384;2023-12-28T08:48:45;8.37;;;4.97;;
13785;SDS011;47474;48.824;9.384;2023-12-28T08:51:12;6.83;;;5.43;;
13785;SDS011;47474;48.824;9.384;2023-12-28T08:53:39;7.23;;;4.60;;
13785;SDS011;47474;48.824;9.384;2023-12-28T08:56:12;5.23;;;3.97;;
13785;SDS011;47474;48.824;9.384;2023-12-28T08:58:39;3.77;;;3.27;;
13785;SDS011;47474;48.824;9.384;2023-12-28T09:01:07;7.40;;;4.40;;
13785;SDS011;47474;48.824;9.384;2023-12-28T09:03:34;6.73;;;5.20;;
13785;SDS011;47474;48.824;9.384;2023-12-28T09:06:00;10.27;;;6.07;;
13785;SDS011;47474;48.824;9.384;2023-12-28T09:08:27;8.47;;;5.53;;
13785;SDS011;47474;48.824;9.384;2023-12-28T09:10:53;6.37;;;4.83;;
13785;SDS011;47474;48.824;9.384;2023-12-28T09:13:20;7.10;;;5.10;;
13785;SDS011;47474;48.824;9.384;2023-12-28T09:15:46;8.13;;;5.30;;
13785;SDS011;47474;48.824;9.384;2023-12-28T09:18:14;7.00;;;4.57;;
13785;SDS011;47474;48.824;9.384;2023-12-28T09:20:40;5.57;;;4.10;;
13785;SDS011;47474;48.824;9.384;2023-12-28T09:23:07;5.43;;;3.40;;
13785;SDS011;47474;48.824;9.384;2023-12-28T09:25:34;3.83;;;3.10;;
13785;SDS011;47474;48.824;9.384;2023-12-28T09:28:01;5.43;;;3.27;;
13785;SDS011;47474;48.824;9.384;2023-12-28T09:30:27;3.67;;;2.70;;
13785;SDS011;47474;48.824;9.384;2023-12-28T09:32:54;4.57;;;3.20;;
13785;SDS011;47474;48.824;9.384;2023-12-28T09:35:22;3.23;;;2.40;;
13785;SDS011;47474;48.824;9.384;2023-12-28T09:37:50;5.70;;;4.67;;
13785;SDS011;47474;48.824;9.384;2023-12-28T09:40:16;6.63;;;3.90;;
13785;SDS011;47474;48.824;9.384;2023-12-28T09:42:44;7.97;;;4.67;;
13785;SDS011;47474;48.824;9.384;2023-12-28T09:45:15;7.23;;;5.37;;
13785;SDS011;47474;48.824;9.384;2023-12-28T09:47:42;9.00;;;5.00;;
13785;SDS011;47474;48.824;9.384;2023-12-28T09:50:09;12.83;;;7.80;;
13785;SDS011;47474;48.824;9.384;2023-12-28T09:52:37;11.83;;;8.63;;
13785;SDS011;47474;48.824;9.384;2023-12-28T09:55:04;11.93;;;9.27;;
13785;SDS011;47474;48.824;9.384;2023-12-28T09:57:30;9.40;;;7.37;;
13785;SDS011;47474;48.824;9.384;2023-12-28T09:59:57;9.03;;;7.03;;
13785;SDS011;47474;48.824;9.384;2023-12-28T10:02:23;8.40;;;6.20;;
13785;SDS011;47474;48.824;9.384;2023-12-28T10:04:50;6.77;;;5.40;;
13785;SDS011;47474;48.824;9.384;2023-12-28T10:07:16;5.10;;;4.10;;
13785;SDS011;47474;48.824;9.384;2023-12-28T10:09:44;8.07;;;5.53;;
13785;SDS011;47474;48.824;9.384;2023-12-28T10:12:10;7.60;;;5.43;;
13785;SDS011;47474;48.824;9.384;2023-12-28T10:14:37;5.57;;;4.20;;
13785;SDS011;47474;48.824;9.384;2023-12-28T10:17:03;4.63;;;3.80;;
13785;SDS011;47474;48.824;9.384;2023-12-28T10:19:30;6.37;;;3.90;;
13785;SDS011;47474;48.824;9.384;2023-12-28T10:21:57;5.17;;;3.60;;
13785;SDS011;47474;48.824;9.384;2023-12-28T10:24:24;4.07;;;3.13;;
13785;SDS011;47474;48.824;9.384;2023-12-28T10:26:53;3.33;;;2.97;;
13785;SDS011;47474;48.824;9.384;2023-12-28T10:29:20;5.93;;;4.30;;
13785;SDS011;47474;48.824;9.384;2023-12-28T10:31:46;5.63;;;4.37;;
13785;SDS011;47474;48.824;9.384;2023-12-28T10:34:15;6.67;;;4.20;;
13785;SDS011;47474;48.824;9.384;2023-12-28T10:36:41;3.97;;;3.30;;
13785;SDS011;47474;48.824;9.384;2023-12-28T10:39:08;5.03;;;3.30;;
13785;SDS011;47474;48.824;9.384;2023-12-28T10:41:36;4.37;;;2.90;;
13785;SDS011;47474;48.824;9.384;2023-12-28T10:44:05;3.87;;;2.77;;
13785;SDS011;47474;48.824;9.384;2023-12-28T10:46:33;2.60;;;2.40;;
13785;SDS011;47474;48.824;9.384;2023-12-28T10:49:05;2.63;;;2.43;;
13785;SDS011;47474;48.824;9.384;2023-12-28T10:51:32;5.67;;;2.53;;
13785;SDS011;47474;48.824;9.384;2023-12-28T10:54:04;2.63;;;2.23;;
13785;SDS011;47474;48.824;9.384;2023-12-28T10:56:35;3.30;;;2.53;;
13785;SDS011;47474;48.824;9.384;2023-12-28T10:59:09;3.97;;;3.43;;
13785;SDS011;47474;48.824;9.384;2023-12-28T11:01:40;6.60;;;3.80;;
13785;SDS011;47474;48.824;9.384;2023-12-28T11:04:10;10.20;;;7.73;;
13785;SDS011;47474;48.824;9.384;2023-12-28T11:06:41;12.63;;;9.63;;
13785;SDS011;47474;48.824;9.384;2023-12-28T11:09:09;11.20;;;8.60;;
13785;SDS011;47474;48.824;9.384;2023-12-28T11:11:36;10.47;;;7.70;;
13785;SDS011;47474;48.824;9.384;2023-12-28T11:14:03;12.87;;;7.47;;
13785;SDS011;47474;48.824;9.384;2023-12-28T11:16:31;7.37;;;5.50;;
13785;SDS011;47474;48.824;9.384;2023-12-28T11:18:58;6.27;;;4.93;;
13785;SDS011;47474;48.824;9.384;2023-12-28T11:21:25;7.03;;;5.07;;
13785;SDS011;47474;48.824;9.384;2023-12-28T11:23:52;7.97;;;5.23;;
13785;SDS011;47474;48.824;9.384;2023-12-28T11:26:20;7.40;;;5.67;;
13785;SDS011;47474;48.824;9.384;2023-12-28T11:28:47;7.27;;;6.03;;
13785;SDS011;47474;48.824;9.384;2023-12-28T11:31:13;8.23;;;5.23;;
13785;SDS011;47474;48.824;9.384;2023-12-28T11:33:45;8.57;;;5.23;;
13785;SDS011;47474;48.824;9.384;2023-12-28T11:36:12;6.77;;;5.17;;
13785;SDS011;47474;48.824;9.384;2023-12-28T11:38:45;5.97;;;4.97;;
13785;SDS011;47474;48.824;9.384;2023-12-28T11:41:15;5.70;;;4.67;;
13785;SDS011;47474;48.824;9.384;2023-12-28T11:43:42;6.07;;;4.47;;
13785;SDS011;47474;48.824;9.384;2023-12-28T11:46:09;6.40;;;4.80;;
13785;SDS011;47474;48.824;9.384;2023-12-28T11:48:35;6.07;;;4.30;;
13785;SDS011;47474;48.824;9.384;2023-12-28T11:51:03;3.77;;;3.33;;
13785;SDS011;47474;48.824;9.384;2023-12-28T11:53:29;6.00;;;3.03;;
13785;SDS011;47474;48.824;9.384;2023-12-28T11:55:59;3.37;;;2.73;;
13785;SDS011;47474;48.824;9.384;2023-12-28T11:58:28;3.30;;;2.60;;
13785;SDS011;47474;48.824;9.384;2023-12-28T12:00:54;3.07;;;2.07;;
13785;SDS011;47474;48.824;9.384;2023-12-28T12:03:24;3.53;;;2.30;;
13785;SDS011;47474;48.824;9.384;2023-12-28T12:05:51;2.57;;;2.10;;
13785;SDS011;47474;48.824;9.384;2023-12-28T12:08:20;5.67;;;2.43;;
13785;SDS011;47474;48.824;9.384;2023-12-28T12:10:47;4.07;;;3.53;;
13785;SDS011;47474;48.824;9.384;2023-12-28T12:13:13;8.33;;;4.13;;
13785;SDS011;47474;48.824;9.384;2023-12-28T12:15:40;6.40;;;4.70;;
13785;SDS011;47474;48.824;9.384;2023-12-28T12:18:06;7.43;;;4.47;;
13785;SDS011;47474;48.824;9.384;2023-12-28T12:20:33;6.57;;;4.37;;
13785;SDS011;47474;48.824;9.384;2023-12-28T12:22:59;5.23;;;4.13;;
13785;SDS011;47474;48.824;9.384;2023-12-28T12:25:29;5.70;;;4.30;;
13785;SDS011;47474;48.824;9.384;2023-12-28T12:27:56;5.30;;;4.10;;
13785;SDS011;47474;48.824;9.384;2023-12-28T12:30:22;4.77;;;3.93;;
13785;SDS011;47474;48.824;9.384;2023-12-28T12:32:49;4.97;;;4.23;;
13785;SDS011;47474;48.824;9.384;2023-12-28T12:35:15;6.17;;;3.60;;
13785;SDS011;47474;48.824;9.384;2023-12-28T12:37:44;4.70;;;4.20;;
13785;SDS011;47474;48.824;9.384;2023-12-28T12:40:12;7.23;;;5.47;;
13785;SDS011;47474;48.824;9.384;2023-12-28T12:42:41;7.13;;;6.00;;
13785;SDS011;47474;48.824;9.384;2023-12-28T12:45:08;8.90;;;5.63;;
13785;SDS011;47474;48.824;9.384;2023-12-28T12:47:35;7.90;;;6.03;;
13785;SDS011;47474;48.824;9.384;2023-12-28T12:50:01;8.83;;;6.60;;
13785;SDS011;47474;48.824;9.384;2023-12-28T12:52:28;7.43;;;6.30;;
13785;SDS011;47474;48.824;9.384;2023-12-28T12:54:54;8.80;;;7.40;;
13785;SDS011;47474;48.824;9.384;2023-12-28T12:57:20;8.60;;;7.23;;
13785;SDS011;47474;48.824;9.384;2023-12-28T12:59:48;8.27;;;6.70;;
13785;SDS011;47474;48.824;9.384;2023-12-28T13:02:15;10.87;;;7.70;;
13785;SDS011;47474;48.824;9.384;2023-12-28T13:04:42;12.97;;;9.53;;
13785;SDS011;47474;48.824;9.384;2023-12-28T13:07:09;11.60;;;9.37;;
13785;SDS011;47474;48.824;9.384;2023-12-28T13:09:35;12.33;;;10.40;;
13785;SDS011;47474;48.824;9.384;2023-12-28T13:12:02;11.33;;;9.07;;
13785;SDS011;47474;48.824;9.384;2023-12-28T13:14:29;12.07;;;9.57;;
13785;SDS011;47474;48.824;9.384;2023-12-28T13:16:57;10.17;;;7.90;;
13785;SDS011;47474;48.824;9.384;2023-12-28T13:19:23;11.37;;;7.77;;
13785;SDS011;47474;48.824;9.384;2023-12-28T13:21:50;8.07;;;6.93;;
13785;SDS011;47474;48.824;9.384;2023-12-28T13:24:16;6.77;;;5.17;;
13785;SDS011;47474;48.824;9.384;2023-12-28T13:26:43;9.10;;;5.77;;
13785;SDS011;47474;48.824;9.384;2023-12-28T13:29:09;6.87;;;4.87;;
13785;SDS011;47474;48.824;9.384;2023-12-28T13:31:35;6.03;;;4.37;;
13785;SDS011;47474;48.824;9.384;2023-12-28T13:34:04;6.10;;;4.80;;
13785;SDS011;47474;48.824;9.384;2023-12-28T13:36:30;5.77;;;4.47;;
13785;SDS011;47474;48.824;9.384;2023-12-28T13:38:57;7.50;;;5.33;;
13785;SDS011;47474;48.824;9.384;2023-12-28T13:41:23;10.57;;;5.97;;
13785;SDS011;47474;48.824;9.384;2023-12-28T13:43:50;8.97;;;6.77;;
13785;SDS011;47474;48.824;9.384;2023-12-28T13:46:16;10.53;;;7.53;;
13785;SDS011;47474;48.824;9.384;2023-12-28T13:48:42;9.93;;;6.73;;
13785;SDS011;47474;48.824;9.384;2023-12-28T13:51:10;11.57;;;6.50;;
13785;SDS011;47474;48.824;9.384;2023-12-28T13:53:37;8.93;;;6.33;;
13785;SDS011;47474;48.824;9.384;2023-12-28T13:56:05;10.30;;;7.43;;
13785;SDS011;47474;48.824;9.384;2023-12-28T13:58:33;8.97;;;6.63;;
13785;SDS011;47474;48.824;9.384;2023-12-28T14:00:59;9.40;;;6.93;;
13785;SDS011;47474;48.824;9.384;2023-12-28T14:03:26;9.37;;;6.63;;
13785;SDS011;47474;48.824;9.384;2023-12-28T14:05:52;8.07;;;5.80;;
13785;SDS011;47474;48.824;9.384;2023-12-28T14:08:20;7.40;;;4.80;;
13785;SDS011;47474;48.824;9.384;2023-12-28T14:10:47;7.40;;;4.87;;
13785;SDS011;47474;48.824;9.384;2023-12-28T14:13:13;4.37;;;3.30;;
13785;SDS011;47474;48.824;9.384;2023-12-28T14:15:40;4.07;;;3.37;;
13785;SDS011;47474;48.824;9.384;2023-12-28T14:18:06;4.00;;;3.20;;
13785;SDS011;47474;48.824;9.384;2023-12-28T14:20:34;3.70;;;3.40;;
13785;SDS011;47474;48.824;9.384;2023-12-28T14:23:00;3.53;;;2.67;;
13785;SDS011;47474;48.824;9.384;2023-12-28T14:25:29;4.43;;;2.93;;
13785;SDS011;47474;48.824;9.384;2023-12-28T14:27:56;3.43;;;2.97;;
13785;SDS011;47474;48.824;9.384;2023-12-28T14:30:23;4.40;;;3.20;;
13785;SDS011;47474;48.824;9.384;2023-12-28T14:32:50;5.33;;;3.00;;
13785;SDS011;47474;48.824;9.384;2023-12-28T14:35:17;3.90;;;3.13;;
13785;SDS011;47474;48.824;9.384;2023-12-28T14:37:44;6.87;;;5.20;;
13785;SDS011;47474;48.824;9.384;2023-12-28T14:40:11;9.77;;;6.87;;
13785;SDS011;47474;48.824;9.384;2023-12-28T14:42:39;12.67;;;7.03;;
13785;SDS011;47474;48.824;9.384;2023-12-28T14:45:06;7.37;;;5.27;;
13785;SDS011;47474;48.824;9.384;2023-12-28T14:47:33;8.07;;;4.20;;